Date,TemperatureHighF,TemperatureAvgF,TemperatureLowF,DewpointHighF,DewpointAvgF,DewpointLowF,HumidityHigh,HumidityAvg,HumidityLow,PressureMaxIn,PressureMinIn,WindSpeedMaxMPH,WindSpeedAvgMPH,GustSpeedMaxMPH,PrecipitationSumIn
2013-1-1,44.5,41.0,36.9,42.9,38.0,29.6,95,89,70,30.11,29.94,3,0,9,0.84
2013-1-2,43.9,38.7,36.9,42.6,34.6,32.3,95,85,79,30.16,29.96,3,0,12,0.02
2013-1-3,43.6,36.7,29.5,33.8,30.2,23.6,89,78,58,30.36,30.14,3,0,6,0.00
2013-1-4,43.5,32.3,23.9,28.6,24.3,21.4,92,74,46,30.44,30.34,4,0,10,0.01
2013-1-5,45.2,34.9,23.6,35.3,25.7,19.8,88,71,43,30.45,30.24,6,1,9,0.07
2013-1-6,45.1,40.2,37.8,38.1,35.0,28.8,93,82,64,30.29,30.11,7,2,16,0.04
2013-1-7,49.4,37.1,29.3,32.2,27.7,23.4,87,69,47,30.41,30.29,7,1,12,0.00
2013-1-8,54.8,38.3,26.3,34.9,29.6,24.4,94,74,40,30.43,30.28,4,1,9,0.00
2013-1-9,48.2,42.0,34.6,45.8,38.2,31.4,92,87,77,30.45,30.30,4,0,7,0.00
2013-1-10,61.2,52.8,47.3,53.2,48.4,44.9,93,85,72,30.45,30.12,5,1,10,0.00
2013-1-11,70.8,61.7,54.8,62.1,55.1,48.4,90,79,68,30.12,29.97,9,2,16,0.02
2013-1-12,73.3,63.0,55.6,62.4,58.3,53.6,94,85,66,30.08,29.94,1,0,6,0.00
2013-1-13,70.4,58.7,48.2,59.2,53.5,46.8,96,84,61,30.01,29.89,4,1,11,0.57
2013-1-14,60.1,46.9,39.1,58.4,45.3,37.0,95,94,91,30.28,29.97,6,1,14,2.06
2013-1-15,44.2,43.0,41.5,42.9,41.6,39.9,95,95,94,30.17,29.94,5,1,11,2.13
2013-1-16,50.7,45.4,42.8,49.6,43.8,40.9,96,94,91,30.06,29.86,5,1,11,0.46
2013-1-17,43.5,37.7,30.6,42.2,35.8,29.1,95,93,86,30.35,29.92,11,2,14,1.18
2013-1-18,39.6,32.0,24.7,35.2,29.3,23.2,95,90,80,30.56,30.35,3,0,5,0.34
2013-1-19,45.2,34.9,28.2,35.9,30.9,25.9,95,86,61,30.44,30.17,2,1,5,0.01
2013-1-20,55.4,42.8,31.6,36.2,32.5,29.5,94,69,44,30.18,30.09,6,2,15,0.01
2013-1-21,48.2,37.3,29.0,31.5,21.5,7.7,89,57,27,30.19,30.06,9,4,20,0.00
2013-1-22,33.2,27.6,20.6,10.1,1.7,-4.9,50,34,20,30.37,30.18,8,2,16,0.00
2013-1-23,44.2,34.6,25.1,28.0,12.8,-0.3,66,41,29,30.37,30.10,8,3,19,0.00
2013-1-24,45.7,35.1,25.3,33.8,14.8,2.3,65,45,27,30.42,30.07,13,4,27,0.00
2013-1-25,33.4,28.6,23.9,31.9,21.8,4.6,94,77,41,30.37,30.10,4,1,11,0.00
2013-1-26,46.2,36.3,30.7,33.9,30.2,25.9,94,80,51,30.37,30.18,4,1,9,0.48
2013-1-27,46.4,37.4,26.9,38.6,30.6,23.5,89,77,58,30.45,30.31,4,1,9,0.00
2013-1-28,60.4,48.4,39.2,48.3,41.3,35.7,90,77,52,30.34,30.18,6,1,12,0.01
2013-1-29,67.4,55.5,44.5,53.0,48.9,42.9,95,80,58,30.18,29.83,5,1,7,0.00
2013-1-30,69.8,57.3,43.2,59.2,51.2,35.5,95,81,62,29.81,29.44,16,4,37,2.10
2013-1-31,43.2,37.8,32.9,35.4,23.9,19.0,78,58,42,30.03,29.62,15,8,28,0.01